Main page
Satellite images 15-day forecastsClimateMarine weather Cyclones Lightning AirportsFAQ Newsletter About
Weather : Europe Africa North America South America Asia Australia-Oceania Others
Languages Contact

Ljubljana, Slovenia

Brnik

latitude: 46-13N, longitude: 014-29E, elevation: 385 m


METAR: LJLJ 262230Z 00000KT 8000 SCT027 BKN040 03/01 Q1020 NOSIG
TAF: LJLJ 262000Z 2621/2721 VRB02KT 7000 FEW020 OVC045 TEMPO 2621/2721 3500 -DZ BR BKN015 OVC033

Time: 23:44 (22:44 UTC)

Current weather observation

The report was made 14 minutes ago, at 22:30 UTC
Calm wind
Temperature 3°C
Humidity 87%
Pressure 1020 hPa
Visibility: 8000 m
Scattered clouds at a height of 2700 ft
Broken clouds at a height of 4000 ft

Change units

Forecast

The report was made 2 hours and 44 minutes ago, at 20:00 UTC
Forecast valid from 26 at 21 UTC to 27 at 21 UTC
Wind 2 kt from variable directions
Visibility: 7000 m
Few clouds at a height of 2000 ft
Overcast at a height of 4500 ft
Temporary
from 26 at 21 UTC to 27 at 21 UTC
Visibility: 3500 m
Broken clouds at a height of 1500 ft
Overcast at a height of 3300 ft
light drizzle and mist
The information on this site is subject to a disclaimer
Weather : Europe Africa North America South America Asia Australia-Oceania Others
Satellite images 15-day forecastsClimateMarine weather Cyclones Lightning AirportsFAQ Languages Contact Newsletter About